Aviation Digital Data Service (ADDS)

Output produced by METARs form (0425 UTC 30 March 2015)
found at http://www.aviationweather.gov/adds/metars/
 
KPIA 292320Z 3000/3024 26011KT P6SM BKN050 
     FM300100 29006KT P6SM SCT050 
     FM301300 25008KT P6SM SCT250 
     FM301700 25012G20KT P6SM BKN250